Time;durP1;ratioP1;P1;durP2;ratioP2;P2;SDS_P1;SDS_P2;PMS_P1;PMS_P2;Temp;Humidity;BMP_temperature;BMP_pressure;BME280_temperature;BME280_humidity;BME280_pressure;Samples;Min_cycle;Max_cycle;Signal;HPM_P1;HPM_P2
2021/12/10 00:00:15;;;;;;;37.53;15.77;;;;;;;;;;5095459;28;20031;-74
2021/12/10 00:02:46;;;;;;;36.85;14.70;;;;;;;;;;5095448;28;20016;-74
2021/12/10 00:05:14;;;;;;;41.33;17.80;;;;;;;;;;5095410;28;20072;-74
2021/12/10 00:07:41;;;;;;;34.63;16.30;;;;;;;;;;5113496;28;20488;-74
2021/12/10 00:10:09;;;;;;;34.65;15.85;;;;;;;;;;5113503;28;20032;-75
2021/12/10 00:12:38;;;;;;;35.13;16.13;;;;;;;;;;5113485;28;20071;-75
2021/12/10 00:15:05;;;;;;;35.20;15.63;;;;;;;;;;5113569;28;20031;-75
2021/12/10 00:17:31;;;;;;;34.20;16.08;;;;;;;;;;5113515;28;20565;-74
2021/12/10 00:19:59;;;;;;;36.70;15.27;;;;;;;;;;5095277;28;20472;-74
2021/12/10 00:22:35;;;;;;;35.78;15.73;;;;;;;;;;5113439;28;20031;-73
2021/12/10 00:25:01;;;;;;;33.42;15.40;;;;;;;;;;5095318;28;20488;-75
2021/12/10 00:27:30;;;;;;;35.05;15.30;;;;;;;;;;5113386;28;20068;-75
2021/12/10 00:30:04;;;;;;;36.78;15.70;;;;;;;;;;5095180;28;20039;-74
2021/12/10 00:32:35;;;;;;;37.13;15.73;;;;;;;;;;5113838;28;20031;-73
2021/12/10 00:35:04;;;;;;;41.45;17.00;;;;;;;;;;5095195;28;20020;-74
2021/12/10 00:37:31;;;;;;;40.38;16.38;;;;;;;;;;5095088;28;20051;-74
2021/12/10 00:39:58;;;;;;;35.67;16.70;;;;;;;;;;5113346;28;20027;-73
2021/12/10 00:42:27;;;;;;;39.33;16.52;;;;;;;;;;5095067;28;20031;-75
2021/12/10 00:44:55;;;;;;;33.17;14.75;;;;;;;;;;5097145;28;20020;-75
2021/12/10 00:47:21;;;;;;;36.60;15.98;;;;;;;;;;5117836;28;20032;-75
2021/12/10 00:49:48;;;;;;;45.38;16.90;;;;;;;;;;5116982;28;20098;-74
2021/12/10 00:52:14;;;;;;;33.45;15.00;;;;;;;;;;5116916;28;20530;-73
2021/12/10 00:54:41;;;;;;;39.75;16.77;;;;;;;;;;5098636;28;20027;-75
2021/12/10 00:57:08;;;;;;;38.78;17.15;;;;;;;;;;5116745;28;20457;-74
2021/12/10 00:59:35;;;;;;;39.83;16.67;;;;;;;;;;5116791;28;20016;-75
2021/12/10 01:02:01;;;;;;;38.45;16.17;;;;;;;;;;5116722;28;20024;-75
2021/12/10 01:04:30;;;;;;;39.00;16.02;;;;;;;;;;5116751;28;20093;-75
2021/12/10 01:06:59;;;;;;;38.08;15.32;;;;;;;;;;5098096;28;20131;-74
2021/12/10 01:09:27;;;;;;;37.58;16.17;;;;;;;;;;5098405;28;20031;-74
2021/12/10 01:11:58;;;;;;;37.53;16.23;;;;;;;;;;5116483;28;20031;-75
2021/12/10 01:14:37;;;;;;;34.75;15.18;;;;;;;;;;5098268;28;20023;-75
2021/12/10 01:25:34;;;;;;;31.05;15.05;;;;;;;;;;5117129;28;20031;-74
2021/12/10 01:28:01;;;;;;;37.63;15.35;;;;;;;;;;5116885;28;20028;-74
2021/12/10 01:30:31;;;;;;;33.00;15.77;;;;;;;;;;5116175;28;20486;-75
2021/12/10 01:32:59;;;;;;;27.55;13.32;;;;;;;;;;5097870;28;20032;-75
2021/12/10 01:35:30;;;;;;;34.50;16.40;;;;;;;;;;5097836;28;20038;-74
2021/12/10 01:37:57;;;;;;;33.08;14.20;;;;;;;;;;5116683;28;20473;-75
2021/12/10 01:40:25;;;;;;;33.40;14.52;;;;;;;;;;5097907;28;20024;-74
2021/12/10 01:42:55;;;;;;;31.58;14.20;;;;;;;;;;5097863;28;20111;-74
2021/12/10 01:45:25;;;;;;;31.95;14.10;;;;;;;;;;5097697;28;20032;-74
2021/12/10 01:47:57;;;;;;;33.10;15.30;;;;;;;;;;5097623;28;20106;-74
2021/12/10 01:50:24;;;;;;;29.38;14.20;;;;;;;;;;5097624;28;20388;-74
2021/12/10 01:52:52;;;;;;;31.67;14.30;;;;;;;;;;5115889;28;20164;-74
2021/12/10 01:55:20;;;;;;;34.88;16.05;;;;;;;;;;5080357;28;20028;-75
2021/12/10 01:57:47;;;;;;;42.28;19.55;;;;;;;;;;5097163;28;20391;-75
2021/12/10 02:00:14;;;;;;;38.72;19.95;;;;;;;;;;5116218;28;20055;-74
2021/12/10 02:02:43;;;;;;;35.13;16.90;;;;;;;;;;5116046;28;20023;-75
2021/12/10 02:05:09;;;;;;;35.63;16.70;;;;;;;;;;5080422;28;20036;-73
2021/12/10 02:07:36;;;;;;;39.78;18.95;;;;;;;;;;5115591;28;20047;-74
2021/12/10 02:10:04;;;;;;;38.13;17.80;;;;;;;;;;5115457;28;20020;-74
2021/12/10 02:12:30;;;;;;;40.22;18.70;;;;;;;;;;5115850;28;20032;-74
2021/12/10 02:15:00;;;;;;;44.92;19.92;;;;;;;;;;5115390;28;20020;-74
2021/12/10 02:17:32;;;;;;;51.58;21.15;;;;;;;;;;5115543;28;20030;-74
2021/12/10 02:20:01;;;;;;;48.80;18.63;;;;;;;;;;5096964;28;20019;-74
2021/12/10 02:22:27;;;;;;;43.75;20.05;;;;;;;;;;5096881;28;20496;-75
2021/12/10 02:24:54;;;;;;;36.17;18.25;;;;;;;;;;5115193;28;20023;-74
2021/12/10 02:27:20;;;;;;;34.97;16.42;;;;;;;;;;5115014;28;20066;-75
2021/12/10 02:29:46;;;;;;;30.92;16.45;;;;;;;;;;5115135;28;20023;-73
2021/12/10 02:32:12;;;;;;;33.22;14.65;;;;;;;;;;5096699;28;20383;-73
2021/12/10 02:34:39;;;;;;;34.05;16.00;;;;;;;;;;5096640;28;20031;-74
2021/12/10 02:37:05;;;;;;;39.38;17.52;;;;;;;;;;5096553;28;20456;-74
2021/12/10 02:39:31;;;;;;;36.30;17.58;;;;;;;;;;5096573;28;20027;-73
2021/12/10 02:41:58;;;;;;;34.20;14.65;;;;;;;;;;5114802;28;20031;-75
2021/12/10 02:44:27;;;;;;;35.63;17.25;;;;;;;;;;5115328;28;20521;-73
2021/12/10 02:46:53;;;;;;;28.98;13.70;;;;;;;;;;5096508;28;20472;-73
2021/12/10 02:49:20;;;;;;;32.67;16.20;;;;;;;;;;5114692;28;20020;-74
2021/12/10 02:51:46;;;;;;;32.33;15.40;;;;;;;;;;5115086;28;20020;-74
2021/12/10 02:54:16;;;;;;;32.40;15.40;;;;;;;;;;5114497;28;20068;-75
2021/12/10 02:56:44;;;;;;;33.58;15.68;;;;;;;;;;5114818;28;20042;-74
2021/12/10 02:59:11;;;;;;;35.50;16.30;;;;;;;;;;5114510;28;20020;-74
2021/12/10 03:01:50;;;;;;;29.98;15.20;;;;;;;;;;5114440;28;20080;-75
2021/12/10 03:04:16;;;;;;;30.65;14.02;;;;;;;;;;5096228;28;20387;-73
2021/12/10 03:06:51;;;;;;;28.85;14.02;;;;;;;;;;5095841;28;20444;-74
2021/12/10 03:09:18;;;;;;;32.03;16.02;;;;;;;;;;5096125;28;20031;-74
2021/12/10 03:11:49;;;;;;;38.85;16.45;;;;;;;;;;5114211;28;20035;-74
2021/12/10 03:14:23;;;;;;;40.10;17.77;;;;;;;;;;5096019;28;20430;-74
2021/12/10 03:16:51;;;;;;;38.38;18.73;;;;;;;;;;5096029;28;20026;-74
2021/12/10 03:19:18;;;;;;;37.42;18.50;;;;;;;;;;5114171;28;20512;-73
2021/12/10 03:21:45;;;;;;;34.70;16.02;;;;;;;;;;5095900;28;20199;-74
2021/12/10 03:24:13;;;;;;;41.05;19.77;;;;;;;;;;5114138;28;20069;-74
2021/12/10 03:26:39;;;;;;;33.45;15.75;;;;;;;;;;5095817;28;20118;-73
2021/12/10 03:29:05;;;;;;;41.72;19.88;;;;;;;;;;5095812;28;20027;-75
2021/12/10 03:31:32;;;;;;;40.58;19.33;;;;;;;;;;5095663;28;20384;-74
2021/12/10 03:33:59;;;;;;;43.10;18.42;;;;;;;;;;5114030;28;20028;-73
2021/12/10 03:36:26;;;;;;;50.60;22.20;;;;;;;;;;5095701;28;20031;-74
2021/12/10 03:38:53;;;;;;;44.03;22.00;;;;;;;;;;5113924;28;20023;-74
2021/12/10 03:41:19;;;;;;;40.60;20.63;;;;;;;;;;5113925;28;20072;-74
2021/12/10 03:43:47;;;;;;;38.65;17.63;;;;;;;;;;5095562;28;20032;-75
2021/12/10 03:46:13;;;;;;;43.20;19.60;;;;;;;;;;5113866;28;20020;-74
2021/12/10 03:48:41;;;;;;;40.03;17.50;;;;;;;;;;5095564;28;20027;-74
2021/12/10 03:51:09;;;;;;;43.25;18.35;;;;;;;;;;5114404;28;20020;-73
2021/12/10 03:53:36;;;;;;;38.83;16.77;;;;;;;;;;5113686;28;20035;-74
2021/12/10 03:56:06;;;;;;;40.33;18.95;;;;;;;;;;5113798;28;20048;-74
2021/12/10 03:58:32;;;;;;;37.22;17.27;;;;;;;;;;5095533;28;20055;-74
2021/12/10 04:01:00;;;;;;;46.97;21.73;;;;;;;;;;5114234;28;20023;-75
2021/12/10 04:03:27;;;;;;;44.15;20.77;;;;;;;;;;5113648;28;20464;-74
2021/12/10 04:05:54;;;;;;;41.75;20.50;;;;;;;;;;5113636;28;20031;-75
2021/12/10 04:08:21;;;;;;;38.65;16.98;;;;;;;;;;5113644;28;20119;-74
2021/12/10 04:10:48;;;;;;;40.97;17.67;;;;;;;;;;5114131;28;20024;-74
2021/12/10 04:13:15;;;;;;;39.17;18.15;;;;;;;;;;5095257;28;20031;-75
2021/12/10 04:15:41;;;;;;;46.35;20.05;;;;;;;;;;5113612;28;20024;-75
2021/12/10 04:18:08;;;;;;;59.65;25.23;;;;;;;;;;5113523;28;20028;-73
2021/12/10 04:20:35;;;;;;;57.55;24.05;;;;;;;;;;5098657;28;20028;-74
2021/12/10 04:23:03;;;;;;;65.72;30.70;;;;;;;;;;5117555;28;20066;-74
2021/12/10 04:25:29;;;;;;;75.20;34.67;;;;;;;;;;5099184;28;20053;-75
2021/12/10 04:27:57;;;;;;;139.98;62.80;;;;;;;;;;5117440;28;20059;-74
2021/12/10 04:30:24;;;;;;;119.38;54.05;;;;;;;;;;5117379;28;20072;-74
2021/12/10 04:32:51;;;;;;;56.13;24.38;;;;;;;;;;5117210;28;20039;-74
2021/12/10 04:35:18;;;;;;;50.67;25.17;;;;;;;;;;5117230;28;20023;-74
2021/12/10 04:37:46;;;;;;;56.47;27.23;;;;;;;;;;5117511;28;20031;-75
2021/12/10 04:40:13;;;;;;;57.65;27.20;;;;;;;;;;5117158;28;20138;-74
2021/12/10 04:42:39;;;;;;;51.40;26.00;;;;;;;;;;5117676;28;20027;-72
2021/12/10 04:45:07;;;;;;;82.85;40.70;;;;;;;;;;5117643;28;20031;-75
2021/12/10 04:47:34;;;;;;;52.72;24.20;;;;;;;;;;5098749;28;20024;-74
2021/12/10 04:50:01;;;;;;;54.92;24.90;;;;;;;;;;5098823;28;20128;-73
2021/12/10 04:52:27;;;;;;;42.85;20.38;;;;;;;;;;5098570;28;20543;-75
2021/12/10 04:54:54;;;;;;;56.03;25.52;;;;;;;;;;5117481;28;20028;-74
2021/12/10 04:57:21;;;;;;;78.20;34.55;;;;;;;;;;5116957;28;20073;-74
2021/12/10 04:59:47;;;;;;;63.53;28.48;;;;;;;;;;5116773;28;20103;-74
2021/12/10 05:02:15;;;;;;;68.05;26.50;;;;;;;;;;5098459;28;20023;-74
2021/12/10 05:04:44;;;;;;;62.38;25.23;;;;;;;;;;5098436;28;20145;-74
2021/12/10 05:07:11;;;;;;;47.38;21.42;;;;;;;;;;5098133;28;20051;-74
2021/12/10 05:09:37;;;;;;;50.90;21.65;;;;;;;;;;5098429;28;20501;-72
2021/12/10 05:12:03;;;;;;;42.88;19.48;;;;;;;;;;5117010;28;20038;-73
2021/12/10 05:14:31;;;;;;;50.80;23.75;;;;;;;;;;5116838;28;20023;-73
2021/12/10 05:17:01;;;;;;;51.03;19.55;;;;;;;;;;5098220;28;20469;-73
2021/12/10 05:19:28;;;;;;;43.50;21.77;;;;;;;;;;5098108;28;20490;-72
2021/12/10 05:21:54;;;;;;;43.92;19.20;;;;;;;;;;5081419;28;20031;-74
2021/12/10 05:24:21;;;;;;;38.25;17.88;;;;;;;;;;5098018;28;20034;-73
2021/12/10 05:26:48;;;;;;;46.25;20.88;;;;;;;;;;5116833;28;20023;-74
2021/12/10 05:29:14;;;;;;;41.17;17.25;;;;;;;;;;5097911;28;20105;-73
2021/12/10 05:31:43;;;;;;;45.88;20.42;;;;;;;;;;5096859;28;20024;-72
2021/12/10 05:34:09;;;;;;;39.20;18.63;;;;;;;;;;5097827;28;20368;-73
2021/12/10 05:36:36;;;;;;;40.25;18.92;;;;;;;;;;5097852;28;20020;-74
2021/12/10 05:39:04;;;;;;;40.75;17.75;;;;;;;;;;5098402;28;20077;-74
2021/12/10 05:41:30;;;;;;;34.75;16.55;;;;;;;;;;5089119;28;20055;-73
2021/12/10 05:43:56;;;;;;;34.50;15.30;;;;;;;;;;5090290;28;20020;-72
2021/12/10 05:46:26;;;;;;;38.55;18.85;;;;;;;;;;5116197;28;20035;-73
2021/12/10 05:48:52;;;;;;;40.20;18.85;;;;;;;;;;5077276;28;20028;-72
2021/12/10 05:51:18;;;;;;;38.03;17.77;;;;;;;;;;5077157;28;20437;-73
2021/12/10 05:53:44;;;;;;;43.40;20.25;;;;;;;;;;5076915;28;20078;-72
2021/12/10 05:56:11;;;;;;;41.63;21.50;;;;;;;;;;5094914;28;20051;-71
2021/12/10 05:58:37;;;;;;;39.92;19.63;;;;;;;;;;5095096;28;20024;-72
2021/12/10 06:01:06;;;;;;;37.05;17.58;;;;;;;;;;5115782;28;20031;-72
2021/12/10 06:03:33;;;;;;;43.03;19.63;;;;;;;;;;5096459;28;20482;-72
2021/12/10 06:05:59;;;;;;;37.10;17.88;;;;;;;;;;5115445;28;20024;-72
2021/12/10 06:08:26;;;;;;;40.42;19.58;;;;;;;;;;5114967;28;20043;-73
2021/12/10 06:10:53;;;;;;;41.92;17.80;;;;;;;;;;5096734;28;20026;-72
2021/12/10 06:13:19;;;;;;;40.63;19.65;;;;;;;;;;5096904;28;20039;-73
2021/12/10 06:15:46;;;;;;;39.40;17.98;;;;;;;;;;5097025;28;20030;-73
2021/12/10 06:18:12;;;;;;;40.47;19.90;;;;;;;;;;5096931;28;20490;-73
2021/12/10 06:20:40;;;;;;;40.47;19.75;;;;;;;;;;5096733;28;20388;-73
2021/12/10 06:23:06;;;;;;;40.22;21.05;;;;;;;;;;5096698;28;20023;-73
2021/12/10 06:25:32;;;;;;;64.13;40.40;;;;;;;;;;5096738;28;20031;-73
2021/12/10 06:27:59;;;;;;;41.88;22.70;;;;;;;;;;5096676;28;20388;-72
2021/12/10 06:30:29;;;;;;;63.80;21.05;;;;;;;;;;5096495;28;20090;-73
2021/12/10 06:32:55;;;;;;;44.10;20.45;;;;;;;;;;5096238;28;20173;-72
2021/12/10 06:35:22;;;;;;;45.35;19.95;;;;;;;;;;5096522;28;20057;-73
2021/12/10 06:37:48;;;;;;;39.92;20.30;;;;;;;;;;5096585;28;20096;-73
2021/12/10 06:40:17;;;;;;;40.40;20.42;;;;;;;;;;5096595;28;20038;-72
2021/12/10 06:42:43;;;;;;;42.28;20.50;;;;;;;;;;5114208;28;20027;-73
2021/12/10 06:45:11;;;;;;;47.33;23.67;;;;;;;;;;5096394;28;20384;-73
2021/12/10 06:47:37;;;;;;;36.22;18.50;;;;;;;;;;5096163;28;20031;-73
2021/12/10 06:50:05;;;;;;;38.38;18.23;;;;;;;;;;5096135;28;20028;-73
2021/12/10 06:52:31;;;;;;;39.58;17.63;;;;;;;;;;5095789;28;20076;-73
2021/12/10 06:54:57;;;;;;;44.75;19.55;;;;;;;;;;5095797;28;20522;-73
2021/12/10 06:57:23;;;;;;;46.13;20.77;;;;;;;;;;5095963;28;20024;-73
2021/12/10 06:59:50;;;;;;;39.03;19.50;;;;;;;;;;5113796;28;20024;-73
2021/12/10 07:02:16;;;;;;;47.50;21.30;;;;;;;;;;5095907;28;20027;-73
2021/12/10 07:04:42;;;;;;;48.13;20.60;;;;;;;;;;5113170;28;20035;-73
2021/12/10 07:07:10;;;;;;;52.78;22.77;;;;;;;;;;5112308;28;20044;-73
2021/12/10 07:09:36;;;;;;;57.70;25.80;;;;;;;;;;5114177;28;20092;-73
2021/12/10 07:12:03;;;;;;;42.22;21.20;;;;;;;;;;5114284;28;20076;-73
2021/12/10 07:14:29;;;;;;;43.40;20.58;;;;;;;;;;5114187;28;20032;-72
2021/12/10 07:16:55;;;;;;;45.03;21.45;;;;;;;;;;5095928;28;20172;-73
2021/12/10 07:19:22;;;;;;;42.58;22.13;;;;;;;;;;5095529;28;20027;-73
2021/12/10 07:21:48;;;;;;;41.33;19.48;;;;;;;;;;5114121;28;20019;-73
2021/12/10 07:24:16;;;;;;;49.67;25.58;;;;;;;;;;5095133;28;20028;-72
2021/12/10 07:26:43;;;;;;;49.33;25.77;;;;;;;;;;5095552;28;20031;-73
2021/12/10 07:29:10;;;;;;;55.28;25.50;;;;;;;;;;5095527;28;20541;-72
2021/12/10 07:31:37;;;;;;;49.00;22.40;;;;;;;;;;5113360;28;20031;-73
2021/12/10 07:34:03;;;;;;;42.50;20.63;;;;;;;;;;5094933;28;20065;-73
2021/12/10 07:36:29;;;;;;;41.60;21.02;;;;;;;;;;5113663;28;20028;-73
2021/12/10 07:38:59;;;;;;;43.97;20.27;;;;;;;;;;5095604;28;20029;-73
2021/12/10 07:41:26;;;;;;;39.42;19.38;;;;;;;;;;5095596;28;20028;-73
2021/12/10 07:43:52;;;;;;;37.33;18.77;;;;;;;;;;5095322;28;20027;-73
2021/12/10 07:46:19;;;;;;;41.38;19.05;;;;;;;;;;5094801;28;20023;-72
2021/12/10 07:48:46;;;;;;;38.90;18.95;;;;;;;;;;5113156;28;20032;-72
2021/12/10 07:51:16;;;;;;;42.47;18.65;;;;;;;;;;5113974;28;20425;-72
2021/12/10 07:53:43;;;;;;;37.72;18.27;;;;;;;;;;5114245;28;20028;-72
2021/12/10 07:56:11;;;;;;;39.30;18.48;;;;;;;;;;5118179;28;20019;-72
2021/12/10 07:58:40;;;;;;;37.10;18.48;;;;;;;;;;5117592;28;20069;-72
2021/12/10 08:01:08;;;;;;;37.22;19.10;;;;;;;;;;5117194;28;20027;-72
2021/12/10 08:03:35;;;;;;;34.03;18.17;;;;;;;;;;5099236;28;20024;-72
2021/12/10 08:06:01;;;;;;;36.92;18.77;;;;;;;;;;5117996;28;20380;-72
2021/12/10 08:08:27;;;;;;;36.13;18.67;;;;;;;;;;5117443;28;20066;-72
2021/12/10 08:10:53;;;;;;;33.97;18.10;;;;;;;;;;5117694;28;20023;-72
2021/12/10 08:13:22;;;;;;;32.50;16.45;;;;;;;;;;5099628;28;20126;-72
2021/12/10 08:15:49;;;;;;;32.45;18.13;;;;;;;;;;5099092;28;20019;-73
2021/12/10 08:18:15;;;;;;;35.85;19.40;;;;;;;;;;5099166;28;20112;-73
2021/12/10 08:20:41;;;;;;;39.50;19.17;;;;;;;;;;5099003;28;20027;-73
2021/12/10 08:23:08;;;;;;;38.03;20.35;;;;;;;;;;5098467;28;20026;-73
2021/12/10 08:25:34;;;;;;;37.85;20.70;;;;;;;;;;5116924;28;20486;-73
2021/12/10 08:28:01;;;;;;;38.53;17.70;;;;;;;;;;5098901;28;20392;-73
2021/12/10 08:30:29;;;;;;;36.30;17.92;;;;;;;;;;5098782;28;20464;-73
2021/12/10 08:32:56;;;;;;;32.53;16.13;;;;;;;;;;5098875;28;20135;-73
2021/12/10 08:35:24;;;;;;;36.15;16.80;;;;;;;;;;5116434;28;20073;-73
2021/12/10 08:37:52;;;;;;;29.08;15.75;;;;;;;;;;5098664;28;20035;-73
2021/12/10 08:40:21;;;;;;;34.60;16.95;;;;;;;;;;5098769;28;20027;-73
2021/12/10 08:42:47;;;;;;;34.08;17.50;;;;;;;;;;5116581;28;20035;-72
2021/12/10 08:45:13;;;;;;;32.08;15.63;;;;;;;;;;5117402;28;20023;-73
2021/12/10 08:47:40;;;;;;;28.95;14.38;;;;;;;;;;5117123;28;20486;-73
2021/12/10 08:50:07;;;;;;;25.88;12.60;;;;;;;;;;5098577;28;20036;-73
2021/12/10 08:52:34;;;;;;;25.13;12.73;;;;;;;;;;5098357;28;20072;-73
2021/12/10 08:55:00;;;;;;;27.15;13.65;;;;;;;;;;5098387;28;20486;-73
2021/12/10 08:57:26;;;;;;;28.80;13.20;;;;;;;;;;5098181;28;20403;-73
2021/12/10 08:59:53;;;;;;;29.20;13.65;;;;;;;;;;5098423;28;20076;-73
2021/12/10 09:02:19;;;;;;;24.85;12.27;;;;;;;;;;5116328;28;20091;-74
2021/12/10 09:04:46;;;;;;;25.25;11.70;;;;;;;;;;5116212;28;20036;-73
2021/12/10 09:07:14;;;;;;;27.13;11.65;;;;;;;;;;5116308;28;20048;-72
2021/12/10 09:09:42;;;;;;;30.58;12.88;;;;;;;;;;5098266;28;20035;-73
2021/12/10 09:12:13;;;;;;;29.17;13.75;;;;;;;;;;5098065;28;20077;-72
2021/12/10 09:14:44;;;;;;;38.17;16.23;;;;;;;;;;5098121;28;20052;-72
2021/12/10 09:17:11;;;;;;;40.97;17.60;;;;;;;;;;5116345;28;20023;-72
2021/12/10 09:19:39;;;;;;;31.75;14.88;;;;;;;;;;5098012;28;20024;-72
2021/12/10 09:22:07;;;;;;;28.00;13.43;;;;;;;;;;5097882;28;20038;-72
2021/12/10 09:24:34;;;;;;;27.38;13.07;;;;;;;;;;5097805;28;20411;-72
2021/12/10 09:27:00;;;;;;;28.73;14.18;;;;;;;;;;5116139;28;20098;-72
2021/12/10 09:29:28;;;;;;;30.63;14.32;;;;;;;;;;5097335;28;20076;-72
2021/12/10 09:31:55;;;;;;;32.00;14.00;;;;;;;;;;5116600;28;20417;-72
2021/12/10 09:34:21;;;;;;;40.35;20.92;;;;;;;;;;5097695;28;20122;-73
2021/12/10 09:36:49;;;;;;;35.50;16.98;;;;;;;;;;5097360;28;20030;-73
2021/12/10 09:39:17;;;;;;;31.73;15.82;;;;;;;;;;5097924;28;20077;-72
2021/12/10 09:41:44;;;;;;;31.75;16.55;;;;;;;;;;5116203;28;20679;-73
2021/12/10 09:44:10;;;;;;;37.95;16.88;;;;;;;;;;5097181;28;20065;-72
2021/12/10 09:46:37;;;;;;;31.30;16.70;;;;;;;;;;5097335;28;20072;-72
2021/12/10 09:49:06;;;;;;;31.92;16.58;;;;;;;;;;5097374;28;20426;-73
2021/12/10 09:51:35;;;;;;;35.63;18.02;;;;;;;;;;5080525;28;20024;-72
2021/12/10 09:54:07;;;;;;;36.67;19.08;;;;;;;;;;5097366;28;20130;-73
2021/12/10 09:56:33;;;;;;;35.92;18.30;;;;;;;;;;5115475;28;20012;-72
2021/12/10 09:59:00;;;;;;;38.45;19.80;;;;;;;;;;5097274;28;20476;-72
2021/12/10 10:01:33;;;;;;;50.63;19.67;;;;;;;;;;5115493;28;20019;-71
2021/12/10 10:04:01;;;;;;;39.92;18.95;;;;;;;;;;5096797;28;20115;-72
2021/12/10 10:06:33;;;;;;;40.90;20.13;;;;;;;;;;5097003;28;20464;-72
2021/12/10 10:08:59;;;;;;;41.42;20.33;;;;;;;;;;5115115;28;20408;-72
2021/12/10 10:11:28;;;;;;;35.42;17.65;;;;;;;;;;5097525;28;20030;-72
2021/12/10 10:13:56;;;;;;;34.65;17.85;;;;;;;;;;5096861;28;20071;-72
2021/12/10 10:16:25;;;;;;;37.80;18.50;;;;;;;;;;5096345;28;20016;-72
2021/12/10 10:18:52;;;;;;;42.17;20.27;;;;;;;;;;5096662;28;20078;-72
2021/12/10 10:21:21;;;;;;;43.28;21.52;;;;;;;;;;5096821;28;20016;-72
2021/12/10 10:23:47;;;;;;;41.50;19.05;;;;;;;;;;5114121;28;20054;-72
2021/12/10 10:26:18;;;;;;;43.22;21.77;;;;;;;;;;5096797;28;20028;-72
2021/12/10 10:28:44;;;;;;;36.63;18.55;;;;;;;;;;5096770;28;20036;-72
2021/12/10 10:31:16;;;;;;;42.15;19.52;;;;;;;;;;5096722;28;20051;-72
2021/12/10 10:33:44;;;;;;;43.75;19.98;;;;;;;;;;5096646;28;20031;-72
2021/12/10 10:36:18;;;;;;;39.05;19.58;;;;;;;;;;5114985;28;20018;-72
2021/12/10 10:38:47;;;;;;;39.92;18.95;;;;;;;;;;5096289;28;20027;-72
2021/12/10 10:41:15;;;;;;;43.08;20.20;;;;;;;;;;5096497;28;20034;-72
2021/12/10 10:43:41;;;;;;;44.20;21.05;;;;;;;;;;5095945;28;20020;-72
2021/12/10 10:46:07;;;;;;;45.50;21.30;;;;;;;;;;5114526;28;20027;-72
2021/12/10 10:48:33;;;;;;;42.08;20.20;;;;;;;;;;5096280;28;20030;-72
2021/12/10 10:51:23;;;;;;;40.35;19.67;;;;;;;;;;5096393;28;20031;-73
2021/12/10 10:53:50;;;;;;;38.42;19.52;;;;;;;;;;5101465;28;20048;-72
2021/12/10 10:56:17;;;;;;;39.25;18.17;;;;;;;;;;5096216;28;20023;-72
2021/12/10 10:58:56;;;;;;;35.92;17.27;;;;;;;;;;5095885;28;20088;-72
2021/12/10 11:01:28;;;;;;;36.53;17.13;;;;;;;;;;5096251;28;20080;-72
2021/12/10 11:04:00;;;;;;;33.78;17.27;;;;;;;;;;5095828;28;20102;-72
2021/12/10 11:06:28;;;;;;;34.00;15.95;;;;;;;;;;5096008;28;20024;-72
2021/12/10 11:09:03;;;;;;;39.58;18.75;;;;;;;;;;5092471;28;20048;-72
2021/12/10 11:11:34;;;;;;;47.20;19.42;;;;;;;;;;5092674;28;20024;-72
2021/12/10 11:14:12;;;;;;;41.58;19.25;;;;;;;;;;5092576;28;20451;-72
2021/12/10 11:16:41;;;;;;;44.30;18.45;;;;;;;;;;5092439;28;20020;-72
2021/12/10 11:19:12;;;;;;;70.95;18.67;;;;;;;;;;5092282;28;20476;-72
2021/12/10 11:21:43;;;;;;;63.15;17.95;;;;;;;;;;5092962;28;20020;-73
2021/12/10 11:24:12;;;;;;;63.92;19.90;;;;;;;;;;5092039;28;20101;-72
2021/12/10 11:26:46;;;;;;;60.35;19.63;;;;;;;;;;5092323;28;20020;-72
2021/12/10 11:29:31;;;;;;;65.68;17.63;;;;;;;;;;5092283;28;20055;-72
2021/12/10 11:31:58;;;;;;;88.63;19.38;;;;;;;;;;5092179;28;20027;-72
2021/12/10 11:34:45;;;;;;;67.35;19.25;;;;;;;;;;5092604;28;20476;-72
2021/12/10 11:37:12;;;;;;;53.97;19.17;;;;;;;;;;5093209;28;20025;-73
2021/12/10 11:40:04;;;;;;;51.22;17.75;;;;;;;;;;5091945;28;20039;-73
2021/12/10 11:42:37;;;;;;;33.40;13.00;;;;;;;;;;5090349;28;20040;-73
2021/12/10 11:45:29;;;;;;;35.65;14.90;;;;;;;;;;5091718;28;20058;-72
2021/12/10 11:48:05;;;;;;;38.17;13.88;;;;;;;;;;5093706;28;20034;-73
2021/12/10 11:50:31;;;;;;;45.15;14.55;;;;;;;;;;5092125;28;20028;-73
2021/12/10 11:53:04;;;;;;;84.68;16.60;;;;;;;;;;5092022;28;20043;-72
2021/12/10 11:55:33;;;;;;;60.80;15.50;;;;;;;;;;5092177;28;20024;-73
2021/12/10 11:58:00;;;;;;;53.95;14.95;;;;;;;;;;5075296;28;20519;-73
2021/12/10 12:00:28;;;;;;;46.53;14.45;;;;;;;;;;5091936;28;20024;-72
2021/12/10 12:02:58;;;;;;;42.88;14.40;;;;;;;;;;5093648;28;20023;-73
2021/12/10 12:05:34;;;;;;;32.58;12.48;;;;;;;;;;5093311;28;20023;-73
2021/12/10 12:08:04;;;;;;;37.38;13.73;;;;;;;;;;5091714;28;20450;-73
2021/12/10 12:10:38;;;;;;;31.67;13.20;;;;;;;;;;5091844;28;20028;-73
2021/12/10 12:15:43;;;;;;;38.05;13.13;;;;;;;;;;5093214;28;20028;-73
2021/12/10 12:18:22;;;;;;;53.22;14.80;;;;;;;;;;5091352;28;20036;-73
2021/12/10 12:20:52;;;;;;;41.10;13.60;;;;;;;;;;5092390;28;20051;-74
2021/12/10 12:26:13;;;;;;;49.88;14.10;;;;;;;;;;5093389;28;20381;-74
2021/12/10 12:28:42;;;;;;;67.15;18.05;;;;;;;;;;5091861;28;20026;-74
2021/12/10 12:31:11;;;;;;;134.32;17.77;;;;;;;;;;5091782;28;20107;-74
2021/12/10 12:33:57;;;;;;;48.78;15.60;;;;;;;;;;5092935;28;20097;-74
2021/12/10 12:36:25;;;;;;;65.18;15.70;;;;;;;;;;5093122;28;20090;-74
2021/12/10 12:38:52;;;;;;;45.88;15.15;;;;;;;;;;5091682;28;20028;-74
2021/12/10 12:41:20;;;;;;;39.33;12.07;;;;;;;;;;5095743;28;20020;-74
2021/12/10 12:43:48;;;;;;;39.17;15.05;;;;;;;;;;5095506;28;20028;-74
2021/12/10 12:46:15;;;;;;;37.75;13.52;;;;;;;;;;5095417;28;20028;-74
2021/12/10 12:49:00;;;;;;;36.22;12.75;;;;;;;;;;5096639;28;20028;-74
2021/12/10 12:51:26;;;;;;;43.17;15.63;;;;;;;;;;5097142;28;20012;-74
2021/12/10 12:53:53;;;;;;;53.10;14.75;;;;;;;;;;5096718;28;20362;-74
2021/12/10 12:56:22;;;;;;;58.85;15.25;;;;;;;;;;5096783;28;20043;-74
2021/12/10 12:58:58;;;;;;;53.88;15.25;;;;;;;;;;5095952;28;20460;-74
2021/12/10 13:01:33;;;;;;;64.78;18.45;;;;;;;;;;5095164;28;20020;-74
2021/12/10 13:04:09;;;;;;;53.25;17.23;;;;;;;;;;5095907;28;20494;-74
2021/12/10 13:06:38;;;;;;;52.22;16.95;;;;;;;;;;5096402;28;20081;-74
2021/12/10 13:09:10;;;;;;;51.25;17.60;;;;;;;;;;5096168;28;20404;-74
2021/12/10 13:14:37;;;;;;;43.25;15.98;;;;;;;;;;5090530;28;20035;-74
2021/12/10 13:17:12;;;;;;;48.42;17.48;;;;;;;;;;5094978;28;20024;-74
2021/12/10 13:19:38;;;;;;;67.43;18.17;;;;;;;;;;5094862;28;20035;-74
2021/12/10 13:22:07;;;;;;;64.75;17.60;;;;;;;;;;5094681;28;20396;-74
2021/12/10 13:24:34;;;;;;;54.97;18.00;;;;;;;;;;5094879;28;20056;-74
2021/12/10 13:27:01;;;;;;;63.03;19.20;;;;;;;;;;5096272;28;20024;-74
2021/12/10 13:29:29;;;;;;;56.88;20.40;;;;;;;;;;5096198;28;20035;-74
2021/12/10 13:31:55;;;;;;;51.50;17.73;;;;;;;;;;5096361;28;20039;-74
2021/12/10 13:34:22;;;;;;;50.45;18.05;;;;;;;;;;5095787;28;20074;-74
2021/12/10 13:36:49;;;;;;;51.88;17.02;;;;;;;;;;5095797;28;20055;-74
2021/12/10 13:39:16;;;;;;;46.83;17.65;;;;;;;;;;5095755;28;20036;-74
2021/12/10 13:41:42;;;;;;;54.47;20.13;;;;;;;;;;5094446;28;20030;-74
2021/12/10 13:47:06;;;;;;;56.03;20.80;;;;;;;;;;5095710;28;20040;-74
2021/12/10 13:49:49;;;;;;;50.15;18.65;;;;;;;;;;5094308;28;20578;-74
2021/12/10 13:52:33;;;;;;;53.25;20.13;;;;;;;;;;5094346;28;20028;-74
2021/12/10 13:54:59;;;;;;;;;;;;;;;;;;5096491;28;20529;-74
2021/12/10 13:57:26;;;;;;;50.67;18.75;;;;;;;;;;5095370;28;19904;-74
2021/12/10 13:59:57;;;;;;;46.55;18.50;;;;;;;;;;5095291;28;20098;-74
2021/12/10 14:02:32;;;;;;;68.10;21.92;;;;;;;;;;5093969;28;20480;-74
2021/12/10 14:04:59;;;;;;;57.22;20.77;;;;;;;;;;5093936;28;20024;-74
2021/12/10 14:07:25;;;;;;;54.60;21.65;;;;;;;;;;5093965;28;20058;-74
2021/12/10 14:09:58;;;;;;;58.03;21.45;;;;;;;;;;5095014;28;20028;-74
2021/12/10 14:12:28;;;;;;;58.45;20.83;;;;;;;;;;5094055;28;20115;-74
2021/12/10 14:15:09;;;;;;;53.75;21.63;;;;;;;;;;5093748;28;20074;-74
2021/12/10 14:17:40;;;;;;;52.35;21.23;;;;;;;;;;5094070;28;20091;-74
2021/12/10 14:20:09;;;;;;;53.45;23.17;;;;;;;;;;5094870;28;20521;-74
2021/12/10 14:22:38;;;;;;;59.50;22.02;;;;;;;;;;5093622;28;20081;-74
2021/12/10 14:25:14;;;;;;;53.83;22.33;;;;;;;;;;5093480;28;20024;-74
2021/12/10 14:27:48;;;;;;;48.38;19.67;;;;;;;;;;5093557;28;20026;-74
2021/12/10 14:30:17;;;;;;;55.15;23.85;;;;;;;;;;5095328;28;20039;-74
2021/12/10 14:32:43;;;;;;;58.10;23.55;;;;;;;;;;5093339;28;20032;-74
2021/12/10 14:35:13;;;;;;;58.53;25.23;;;;;;;;;;5094609;28;20035;-74
2021/12/10 14:37:51;;;;;;;64.35;25.38;;;;;;;;;;5094902;28;20032;-74
2021/12/10 14:40:19;;;;;;;62.90;25.13;;;;;;;;;;5094564;28;20025;-74
2021/12/10 14:43:05;;;;;;;66.88;26.60;;;;;;;;;;5095343;28;20100;-74